createdAt,value
2023-03-26T00:01:23.626Z,97542.75
2023-03-26T00:03:54.721Z,97545.13
2023-03-26T00:06:23.804Z,97529.28
2023-03-26T00:08:51.511Z,97524.97
2023-03-26T00:11:20.890Z,97531.91
2023-03-26T00:13:48.154Z,97519.38
2023-03-26T00:16:17.684Z,97522.03
2023-03-26T00:18:44.650Z,97514.78
2023-03-26T00:21:15.152Z,97517.44
2023-03-26T00:23:43.068Z,97527.91
2023-03-26T00:26:11.158Z,97531.09
2023-03-26T00:28:40.364Z,97501.47
2023-03-26T00:31:12.947Z,97535.81
2023-03-26T00:33:41.340Z,97527.34
2023-03-26T00:36:14.749Z,97480.03
2023-03-26T00:38:42.923Z,97503.38
2023-03-26T00:41:19.579Z,97506.19
2023-03-26T00:43:46.676Z,97526.03
2023-03-26T00:46:13.735Z,97525.22
2023-03-26T00:48:45.530Z,97519.81
2023-03-26T00:51:17.917Z,97521.03
2023-03-26T00:53:46.959Z,97522.69
2023-03-26T00:56:14.345Z,97507.78
2023-03-26T00:58:41.768Z,97516.72
2023-03-26T01:01:15.462Z,97510.03
2023-03-26T01:03:53.635Z,97522.03
2023-03-26T01:06:35.912Z,97517.72
2023-03-26T01:09:34.943Z,97523.00
2023-03-26T01:12:06.601Z,97517.88
2023-03-26T01:14:33.397Z,97522.63
2023-03-26T01:17:02.434Z,97531.94
2023-03-26T01:19:45.258Z,97513.81
2023-03-26T01:22:24.438Z,97532.91
2023-03-26T01:24:56.487Z,97521.47
2023-03-26T01:27:29.543Z,97531.22
2023-03-26T01:30:15.113Z,97507.31
2023-03-26T01:33:14.255Z,97478.09
2023-03-26T01:36:04.110Z,97518.13
2023-03-26T01:39:02.159Z,97503.22
2023-03-26T01:41:35.618Z,97517.44
2023-03-26T01:44:27.273Z,97507.84
2023-03-26T01:46:55.088Z,97507.84
2023-03-26T01:49:21.781Z,97506.03
2023-03-26T01:51:48.502Z,97491.09
2023-03-26T01:54:21.133Z,97491.09
2023-03-26T01:56:54.726Z,97502.56
2023-03-26T01:59:41.278Z,97502.00
2023-03-26T02:02:38.688Z,97510.63
2023-03-26T02:05:22.662Z,97496.56
2023-03-26T02:07:58.575Z,97494.88
2023-03-26T02:10:30.300Z,97461.50
2023-03-26T02:12:58.967Z,97497.53
2023-03-26T02:15:25.930Z,97496.72
2023-03-26T02:17:53.332Z,97489.75
2023-03-26T02:20:20.901Z,97491.69
2023-03-26T02:22:47.888Z,97496.97
2023-03-26T02:25:21.116Z,97490.72
2023-03-26T02:27:52.840Z,97478.50
2023-03-26T02:30:29.475Z,97465.97
2023-03-26T02:32:59.238Z,97491.00
2023-03-26T02:35:30.737Z,97494.50
2023-03-26T02:37:59.987Z,97492.81
2023-03-26T02:40:26.704Z,97482.38
2023-03-26T02:42:53.576Z,97481.53
2023-03-26T02:45:20.273Z,97486.81
2023-03-26T02:48:08.029Z,97495.63
2023-03-26T02:50:57.503Z,97494.91
2023-03-26T02:53:39.418Z,97483.78
2023-03-26T02:56:29.596Z,97473.63
2023-03-26T02:59:13.818Z,97478.63
2023-03-26T03:01:43.726Z,97489.78
2023-03-26T03:04:13.590Z,97475.13
2023-03-26T03:06:40.958Z,97489.94
2023-03-26T03:09:11.018Z,97484.63
2023-03-26T03:11:39.583Z,97474.63
2023-03-26T03:14:07.775Z,97480.31
2023-03-26T03:16:35.325Z,97472.50
2023-03-26T03:19:06.168Z,97489.47
2023-03-26T03:21:37.703Z,97486.81
2023-03-26T03:24:05.117Z,97482.66
2023-03-26T03:26:37.711Z,97482.50
2023-03-26T03:29:29.041Z,97471.53
2023-03-26T03:32:00.060Z,97483.19
2023-03-26T03:34:49.827Z,97484.88
2023-03-26T03:37:17.682Z,97491.84
2023-03-26T03:39:50.254Z,97484.75
2023-03-26T03:42:20.263Z,97491.28
2023-03-26T03:44:49.034Z,97493.09
2023-03-26T03:47:35.914Z,97486.16
2023-03-26T03:50:03.406Z,97473.75
2023-03-26T03:52:30.631Z,97477.22
2023-03-26T03:54:57.776Z,97483.34
2023-03-26T03:57:45.641Z,97480.00
2023-03-26T04:00:18.146Z,97482.50
2023-03-26T04:02:56.192Z,97482.50
2023-03-26T04:05:26.520Z,97479.84
2023-03-26T04:07:53.070Z,97478.22
2023-03-26T04:10:28.502Z,97480.88
2023-03-26T04:13:04.094Z,97486.16
2023-03-26T04:15:57.228Z,97481.13
2023-03-26T04:18:26.231Z,97470.84
2023-03-26T04:20:55.505Z,97469.56
2023-03-26T04:23:26.684Z,97480.16
2023-03-26T04:26:10.386Z,97457.19
2023-03-26T04:29:03.447Z,97475.03
2023-03-26T04:31:32.009Z,97460.69
2023-03-26T04:34:13.637Z,97460.13
2023-03-26T04:36:55.175Z,97453.44
2023-03-26T04:39:30.024Z,97455.78
2023-03-26T04:42:19.920Z,97457.63
2023-03-26T04:45:15.305Z,97446.59
2023-03-26T04:47:46.474Z,97455.09
2023-03-26T04:50:13.485Z,97446.34
2023-03-26T04:52:43.276Z,97413.53
2023-03-26T04:55:58.050Z,97456.09
2023-03-26T04:58:44.760Z,97457.50
2023-03-26T05:01:11.953Z,97459.84
2023-03-26T05:03:45.800Z,97456.09
2023-03-26T05:06:14.528Z,97457.88
2023-03-26T05:08:41.722Z,97454.00
2023-03-26T05:11:12.238Z,97447.72
2023-03-26T05:13:39.526Z,97452.91
2023-03-26T05:16:11.467Z,97422.72
2023-03-26T05:18:41.365Z,97447.72
2023-03-26T05:21:08.946Z,97451.06
2023-03-26T05:23:37.204Z,97455.41
2023-03-26T05:26:16.306Z,97447.88
2023-03-26T05:28:43.228Z,97454.00
2023-03-26T05:31:21.167Z,97417.13
2023-03-26T05:33:50.278Z,97466.81
2023-03-26T05:36:17.222Z,97461.66
2023-03-26T05:38:49.892Z,97407.97
2023-03-26T05:41:42.901Z,97438.69
2023-03-26T05:44:09.679Z,97458.19
2023-03-26T05:46:36.804Z,97439.81
2023-03-26T05:49:03.813Z,97453.72
2023-03-26T05:51:33.881Z,97426.03
2023-03-26T05:54:18.606Z,97454.44
2023-03-26T05:57:08.188Z,97452.44
2023-03-26T05:59:57.938Z,97446.47
2023-03-26T06:02:43.391Z,97454.97
2023-03-26T06:05:26.864Z,97438.97
2023-03-26T06:08:16.451Z,97454.13
2023-03-26T06:10:50.764Z,97448.16
2023-03-26T06:13:17.793Z,97454.66
2023-03-26T06:15:46.176Z,97437.28
2023-03-26T06:18:42.941Z,97450.34
2023-03-26T06:21:33.970Z,97444.50
2023-03-26T06:24:16.410Z,97453.69
2023-03-26T06:26:51.149Z,97461.47
2023-03-26T06:29:43.788Z,97460.66
2023-03-26T06:32:20.507Z,97466.78
2023-03-26T06:34:59.164Z,97469.41
2023-03-26T06:37:25.854Z,97471.09
2023-03-26T06:39:57.670Z,97463.16
2023-03-26T06:43:07.707Z,97463.97
2023-03-26T06:45:54.385Z,97465.66
2023-03-26T06:48:39.800Z,97467.47
2023-03-26T06:51:19.421Z,97461.22
2023-03-26T06:54:04.872Z,97457.72
2023-03-26T06:56:53.068Z,97464.81
2023-03-26T06:59:25.855Z,97469.16
2023-03-26T07:02:11.677Z,97467.47
2023-03-26T07:05:16.989Z,97412.69
2023-03-26T07:08:03.062Z,97464.97
2023-03-26T07:10:48.460Z,97455.50
2023-03-26T07:13:39.910Z,97466.50
2023-03-26T07:16:41.929Z,97456.75
2023-03-26T07:19:33.235Z,97456.63
2023-03-26T07:22:01.663Z,97450.09
2023-03-26T07:24:48.100Z,97459.25
2023-03-26T07:28:21.999Z,97463.84
2023-03-26T07:31:42.612Z,97462.19
2023-03-26T07:34:45.308Z,97459.53
2023-03-26T07:37:35.814Z,97447.13
2023-03-26T07:40:45.789Z,97453.25
2023-03-26T07:43:41.358Z,97446.16
2023-03-26T07:46:12.437Z,97447.81
2023-03-26T07:49:12.644Z,97440.31
2023-03-26T07:51:52.522Z,97414.28
2023-03-26T07:54:52.242Z,97441.53
2023-03-26T07:57:58.838Z,97429.13
2023-03-26T08:00:58.717Z,97438.91
2023-03-26T08:03:42.240Z,97432.22
2023-03-26T08:06:39.581Z,97424.16
2023-03-26T08:09:41.892Z,97436.41
2023-03-26T08:12:57.451Z,97453.50
2023-03-26T08:15:41.896Z,97442.53
2023-03-26T08:18:20.509Z,97436.50
2023-03-26T08:20:54.341Z,97431.88
2023-03-26T08:23:50.463Z,97438.00
2023-03-26T08:26:36.867Z,97428.25
2023-03-26T08:29:16.132Z,97426.88
2023-03-26T08:31:44.885Z,97424.09
2023-03-26T08:34:13.416Z,97385.88
2023-03-26T08:36:40.402Z,97434.22
2023-03-26T08:39:08.109Z,97437.72
2023-03-26T08:42:02.941Z,97438.53
2023-03-26T08:45:12.006Z,97436.06
2023-03-26T08:47:48.068Z,97436.59
2023-03-26T08:50:33.790Z,97428.50
2023-03-26T08:53:31.336Z,97423.06
2023-03-26T08:56:34.920Z,97422.06
2023-03-26T08:59:43.067Z,97425.56
2023-03-26T09:02:38.472Z,97428.06
2023-03-26T09:05:44.768Z,97400.66
2023-03-26T09:08:17.106Z,97413.00
2023-03-26T09:11:09.234Z,97418.59
2023-03-26T09:14:08.626Z,97416.50
2023-03-26T09:17:04.382Z,97417.31
2023-03-26T09:19:55.835Z,97426.13
2023-03-26T09:22:44.017Z,97424.28
2023-03-26T09:25:18.384Z,97423.31
2023-03-26T09:28:14.122Z,97418.00
2023-03-26T09:31:05.549Z,97424.13
2023-03-26T09:33:56.333Z,97430.28
2023-03-26T09:36:40.986Z,97418.72
2023-03-26T09:39:26.638Z,97410.22
2023-03-26T09:42:09.034Z,97423.31
2023-03-26T09:45:13.422Z,97424.13
2023-03-26T09:48:16.456Z,97417.19
2023-03-26T09:50:52.471Z,97404.06
2023-03-26T09:53:56.355Z,97415.22
2023-03-26T09:56:32.332Z,97414.38
2023-03-26T09:59:37.729Z,97410.75
2023-03-26T10:02:20.648Z,97404.47
2023-03-26T10:05:21.560Z,97400.00
2023-03-26T10:08:16.568Z,97394.88
2023-03-26T10:10:47.347Z,97365.25
2023-03-26T10:13:24.872Z,97395.69
2023-03-26T10:16:05.247Z,97377.22
2023-03-26T10:18:49.647Z,97392.88
2023-03-26T10:21:34.585Z,97387.59
2023-03-26T10:24:13.579Z,97379.66
2023-03-26T10:27:10.833Z,97383.16
2023-03-26T10:30:16.282Z,97374.22
2023-03-26T10:32:51.292Z,97373.38
2023-03-26T10:35:41.311Z,97376.88
2023-03-26T10:38:45.715Z,97374.06
2023-03-26T10:41:29.087Z,97365.44
2023-03-26T10:44:22.992Z,97330.84
2023-03-26T10:47:04.772Z,97366.94
2023-03-26T10:49:50.031Z,97364.44
2023-03-26T10:52:25.048Z,97362.63
2023-03-26T10:55:03.631Z,97359.97
2023-03-26T10:57:53.875Z,97367.63
2023-03-26T11:00:27.231Z,97359.69
2023-03-26T11:03:10.123Z,97331.38
2023-03-26T11:06:10.985Z,97354.41
2023-03-26T11:08:52.589Z,97358.84
2023-03-26T11:11:38.503Z,97362.50
2023-03-26T11:14:33.825Z,97364.28
2023-03-26T11:17:40.153Z,97348.84
2023-03-26T11:20:19.767Z,97353.75
2023-03-26T11:23:00.942Z,97353.75
2023-03-26T11:25:27.620Z,97380.34
2023-03-26T11:28:00.200Z,97385.63
2023-03-26T11:30:45.954Z,97387.59
2023-03-26T11:33:32.701Z,97398.19
2023-03-26T11:36:07.296Z,97384.13
2023-03-26T11:38:41.928Z,97385.91
2023-03-26T11:41:23.614Z,97380.63
2023-03-26T11:44:25.994Z,97377.97
2023-03-26T11:47:01.612Z,97367.38
2023-03-26T11:49:29.479Z,97370.72
2023-03-26T11:51:56.524Z,97369.91
2023-03-26T11:54:23.234Z,97356.41
2023-03-26T11:57:04.710Z,97354.84
2023-03-26T12:00:10.778Z,97345.09
2023-03-26T12:02:41.580Z,97354.69
2023-03-26T12:05:19.932Z,97335.91
2023-03-26T12:07:52.316Z,97351.91
2023-03-26T12:10:26.786Z,97334.94
2023-03-26T12:12:56.678Z,97343.97
2023-03-26T12:17:47.258Z,97334.78
2023-03-26T12:20:24.854Z,97337.97
2023-03-26T12:22:59.574Z,97344.25
2023-03-26T12:25:38.850Z,97317.28
2023-03-26T12:28:18.546Z,97328.50
2023-03-26T12:31:00.952Z,97328.34
2023-03-26T12:33:34.205Z,97323.91
2023-03-26T12:36:26.451Z,97292.47
2023-03-26T12:40:06.028Z,97308.31
2023-03-26T12:43:51.506Z,97298.25
2023-03-26T12:44:54.605Z,97290.97
2023-03-26T12:48:00.848Z,97293.63
2023-03-26T12:50:34.448Z,97272.44
2023-03-26T12:53:17.917Z,97271.59
2023-03-26T12:56:23.959Z,97272.28
2023-03-26T12:59:00.289Z,97258.44
2023-03-26T13:01:40.835Z,97281.78
2023-03-26T13:04:17.216Z,97261.84
2023-03-26T13:06:59.745Z,97268.38
2023-03-26T13:09:32.816Z,97270.03
2023-03-26T13:12:43.170Z,97271.72
2023-03-26T13:15:22.032Z,97263.94
2023-03-26T13:17:51.726Z,97262.94
2023-03-26T13:20:21.521Z,97255.00
2023-03-26T13:23:01.868Z,97254.00
2023-03-26T13:25:34.811Z,97253.00
2023-03-26T13:28:19.816Z,97246.72
2023-03-26T13:31:05.390Z,97241.44
2023-03-26T13:33:46.350Z,97225.59
2023-03-26T13:36:31.158Z,97226.34
2023-03-26T13:39:08.154Z,97239.59
2023-03-26T13:41:41.146Z,97225.38
2023-03-26T13:44:19.970Z,97228.88
2023-03-26T13:46:55.169Z,97236.66
2023-03-26T13:49:43.259Z,97226.88
2023-03-26T13:52:22.950Z,97214.78
2023-03-26T13:55:12.340Z,97222.44
2023-03-26T13:57:43.374Z,97222.44
2023-03-26T14:00:18.348Z,97212.91
2023-03-26T14:03:04.022Z,97225.09
2023-03-26T14:05:42.262Z,97228.38
2023-03-26T14:08:25.344Z,97224.22
2023-03-26T14:11:01.564Z,97211.50
2023-03-26T14:14:06.155Z,97217.66
2023-03-26T14:16:42.321Z,97220.31
2023-03-26T14:19:30.888Z,97225.44
2023-03-26T14:22:18.560Z,97220.16
2023-03-26T14:25:00.064Z,97210.69
2023-03-26T14:27:44.978Z,97219.16
2023-03-26T14:30:24.405Z,97212.88
2023-03-26T14:33:27.171Z,97210.91
2023-03-26T14:35:57.553Z,97208.25
2023-03-26T14:38:40.233Z,97209.09
2023-03-26T14:41:26.987Z,97207.25
2023-03-26T14:44:12.803Z,97192.31
2023-03-26T14:47:00.976Z,97214.22
2023-03-26T14:49:53.615Z,97209.91
2023-03-26T14:52:39.413Z,97195.78
2023-03-26T14:55:17.069Z,97209.09
2023-03-26T14:57:52.726Z,97203.78
2023-03-26T15:01:04.145Z,97204.78
2023-03-26T15:03:56.448Z,97201.28
2023-03-26T15:06:41.901Z,97202.28
2023-03-26T15:09:30.885Z,97201.59
2023-03-26T15:12:15.058Z,97192.84
2023-03-26T15:14:51.077Z,97198.13
2023-03-26T15:17:59.530Z,97196.47
2023-03-26T15:20:47.854Z,97192.97
2023-03-26T15:23:29.412Z,97195.78
2023-03-26T15:25:58.785Z,97188.00
2023-03-26T15:28:50.353Z,97181.84
2023-03-26T15:31:18.526Z,97183.69
2023-03-26T15:33:51.167Z,97180.22
2023-03-26T15:36:28.139Z,97178.38
2023-03-26T15:39:06.505Z,97176.03
2023-03-26T15:41:50.951Z,97160.63
2023-03-26T15:44:31.680Z,97168.78
2023-03-26T15:47:13.055Z,97174.22
2023-03-26T15:49:49.862Z,97168.09
2023-03-26T15:52:30.118Z,97159.66
2023-03-26T15:55:01.761Z,97161.16
2023-03-26T15:57:39.095Z,97157.66
2023-03-26T16:00:25.879Z,97165.75
2023-03-26T16:03:20.386Z,97167.59
2023-03-26T16:06:09.699Z,97165.91
2023-03-26T16:08:53.102Z,97152.69
2023-03-26T16:11:44.971Z,97151.81
2023-03-26T16:14:23.786Z,97151.44
2023-03-26T16:16:59.248Z,97146.69
2023-03-26T16:19:36.619Z,97152.81
2023-03-26T16:22:07.754Z,97123.25
2023-03-26T16:24:37.789Z,97144.03
2023-03-26T16:27:26.212Z,97139.00
2023-03-26T16:30:15.755Z,97142.38
2023-03-26T16:32:55.289Z,97149.59
2023-03-26T16:35:35.875Z,97141.66
2023-03-26T16:38:14.766Z,97136.50
2023-03-26T16:41:01.858Z,97132.19
2023-03-26T16:43:43.897Z,97152.41
2023-03-26T16:46:11.144Z,97155.06
2023-03-26T16:48:47.123Z,97147.13
2023-03-26T16:51:32.485Z,97145.44
2023-03-26T16:54:26.999Z,97142.00
2023-03-26T16:57:28.752Z,97125.50
2023-03-26T17:00:05.932Z,97136.84
2023-03-26T17:02:57.636Z,97129.88
2023-03-26T17:05:38.022Z,97139.63
2023-03-26T17:08:17.443Z,97133.50
2023-03-26T17:11:08.447Z,97135.34
2023-03-26T17:13:41.215Z,97132.00
2023-03-26T17:16:13.704Z,97140.78
2023-03-26T17:18:58.171Z,97135.13
2023-03-26T17:21:45.534Z,97137.47
2023-03-26T17:24:26.170Z,97137.06
2023-03-26T17:27:29.910Z,97143.91
2023-03-26T17:30:03.811Z,97142.25
2023-03-26T17:32:58.613Z,97133.78
2023-03-26T17:35:41.766Z,97124.25
2023-03-26T17:38:17.801Z,97141.72
2023-03-26T17:40:47.634Z,97140.22
2023-03-26T17:43:47.742Z,97143.69
2023-03-26T17:46:34.600Z,97136.72
2023-03-26T17:49:11.359Z,97135.38
2023-03-26T17:52:17.074Z,97141.66
2023-03-26T17:54:48.033Z,97145.44
2023-03-26T17:57:40.211Z,97140.31
2023-03-26T18:00:16.764Z,97135.09
2023-03-26T18:02:51.265Z,97140.75
2023-03-26T18:05:20.719Z,97144.81
2023-03-26T18:08:24.587Z,97141.03
2023-03-26T18:11:26.216Z,97112.78
2023-03-26T18:13:58.800Z,97138.72
2023-03-26T18:16:47.524Z,97133.06
2023-03-26T18:19:19.509Z,97120.06
2023-03-26T18:21:58.034Z,97142.66
2023-03-26T18:24:40.527Z,97137.38
2023-03-26T18:27:12.623Z,97129.56
2023-03-26T18:30:01.568Z,97128.22
2023-03-26T18:32:34.055Z,97130.56
2023-03-26T18:35:17.060Z,97123.06
2023-03-26T18:37:53.771Z,97131.56
2023-03-26T18:40:23.548Z,97132.69
2023-03-26T18:42:59.181Z,97130.03
2023-03-26T18:45:39.837Z,97136.31
2023-03-26T18:48:26.135Z,97139.94
2023-03-26T18:51:06.022Z,97125.84
2023-03-26T18:53:45.824Z,97133.28
2023-03-26T18:56:29.193Z,97127.06
2023-03-26T18:59:02.555Z,97138.59
2023-03-26T19:01:33.236Z,97141.22
2023-03-26T19:04:06.170Z,97134.28
2023-03-26T19:06:38.375Z,97132.44
2023-03-26T19:09:16.384Z,97130.66
2023-03-26T19:12:00.665Z,97120.34
2023-03-26T19:14:28.660Z,97126.47
2023-03-26T19:17:01.427Z,97127.31
2023-03-26T19:19:39.508Z,97131.75
2023-03-26T19:22:08.092Z,97135.41
2023-03-26T19:24:36.311Z,97106.38
2023-03-26T19:27:04.751Z,97122.78
2023-03-26T19:29:35.008Z,97124.81
2023-03-26T19:32:20.276Z,97129.25
2023-03-26T19:34:51.860Z,97122.31
2023-03-26T19:37:22.802Z,97125.97
2023-03-26T19:40:17.175Z,97126.78
2023-03-26T19:42:50.817Z,97125.97
2023-03-26T19:45:35.737Z,97120.81
2023-03-26T19:48:15.026Z,97108.72
2023-03-26T19:51:01.329Z,97119.28
2023-03-26T19:53:34.591Z,97120.97
2023-03-26T19:56:20.904Z,97122.63
2023-03-26T19:58:50.001Z,97115.47
2023-03-26T20:01:22.818Z,97118.31
2023-03-26T20:03:59.411Z,97117.78
2023-03-26T20:06:42.605Z,97116.50
2023-03-26T20:09:12.990Z,97124.44
2023-03-26T20:11:46.478Z,97120.16
2023-03-26T20:14:19.366Z,97114.72
2023-03-26T20:16:51.427Z,97133.50
2023-03-26T20:19:27.021Z,97127.38
2023-03-26T20:21:54.617Z,97126.41
2023-03-26T20:24:21.632Z,97117.78
2023-03-26T20:26:48.590Z,97100.16
2023-03-26T20:29:16.124Z,97106.38
2023-03-26T20:31:43.529Z,97111.69
2023-03-26T20:34:17.018Z,97102.88
2023-03-26T20:36:48.218Z,97106.50
2023-03-26T20:39:15.582Z,97091.66
2023-03-26T20:41:47.627Z,97080.09
2023-03-26T20:44:17.378Z,97082.88
2023-03-26T20:46:55.970Z,97089.00
2023-03-26T20:49:24.809Z,97082.03
2023-03-26T20:51:51.441Z,97077.16
2023-03-26T20:54:24.337Z,97081.16
2023-03-26T20:56:52.382Z,97081.16
2023-03-26T20:59:22.168Z,97048.44
2023-03-26T21:01:50.171Z,97064.47
2023-03-26T21:04:17.750Z,97062.00
2023-03-26T21:06:44.327Z,97062.00
2023-03-26T21:09:23.437Z,97063.78
2023-03-26T21:11:55.300Z,97057.53
2023-03-26T21:14:27.666Z,97047.91
2023-03-26T21:16:54.866Z,97040.97
2023-03-26T21:19:21.821Z,97046.41
2023-03-26T21:21:59.888Z,97048.06
2023-03-26T21:24:40.909Z,97036.16
2023-03-26T21:27:19.708Z,97041.13
2023-03-26T21:29:46.712Z,96995.78
2023-03-26T21:32:14.724Z,96985.19
2023-03-26T21:34:55.540Z,97030.69
2023-03-26T21:37:25.648Z,97011.94
2023-03-26T21:39:52.565Z,97027.91
2023-03-26T21:42:19.676Z,97013.97
2023-03-26T21:44:46.764Z,97015.50
2023-03-26T21:47:14.074Z,97000.72
2023-03-26T21:49:41.196Z,97024.28
2023-03-26T21:52:14.188Z,97041.13
2023-03-26T21:54:43.182Z,97035.66
2023-03-26T21:57:29.065Z,97042.78
2023-03-26T22:00:11.521Z,97043.75
2023-03-26T22:03:00.768Z,97012.34
2023-03-26T22:05:45.448Z,97047.25
2023-03-26T22:08:24.260Z,97029.56
2023-03-26T22:10:51.224Z,97025.41
2023-03-26T22:13:19.925Z,97000.56
2023-03-26T22:15:46.743Z,97019.50
2023-03-26T22:18:14.248Z,97015.03
2023-03-26T22:20:43.223Z,97010.72
2023-03-26T22:23:10.773Z,97016.19
2023-03-26T22:25:38.628Z,97008.25
2023-03-26T22:28:05.649Z,96967.31
2023-03-26T22:30:33.413Z,97011.72
2023-03-26T22:33:00.075Z,96992.81
2023-03-26T22:35:26.706Z,97004.94
2023-03-26T22:38:00.491Z,96957.28
2023-03-26T22:40:28.276Z,97003.13
2023-03-26T22:42:55.141Z,97002.41
2023-03-26T22:45:22.848Z,96997.28
2023-03-26T22:47:49.965Z,96995.63
2023-03-26T22:50:16.671Z,96982.03
2023-03-26T22:52:43.189Z,96968.91
2023-03-26T22:55:11.528Z,96973.81
2023-03-26T22:57:39.551Z,96961.78
2023-03-26T23:00:16.145Z,96974.91
2023-03-26T23:02:47.188Z,96959.03
2023-03-26T23:05:17.371Z,96945.44
2023-03-26T23:07:45.905Z,96956.38
2023-03-26T23:10:13.027Z,96958.03
2023-03-26T23:12:43.349Z,96966.00
2023-03-26T23:15:10.637Z,96941.25
2023-03-26T23:17:37.809Z,96967.69
2023-03-26T23:20:14.996Z,96962.56
2023-03-26T23:22:42.831Z,96963.38
2023-03-26T23:25:11.145Z,96948.63
2023-03-26T23:27:39.596Z,96957.09
2023-03-26T23:30:06.719Z,96941.84
2023-03-26T23:32:37.637Z,96941.03
2023-03-26T23:35:04.954Z,96945.69
2023-03-26T23:37:34.791Z,96923.97
2023-03-26T23:40:01.470Z,96949.16
2023-03-26T23:42:29.761Z,96941.84
2023-03-26T23:44:57.505Z,96927.91
2023-03-26T23:47:24.452Z,96949.16
2023-03-26T23:49:51.195Z,96948.34
2023-03-26T23:52:18.301Z,96915.66
2023-03-26T23:54:45.638Z,96943.06
2023-03-26T23:57:12.798Z,96937.78
2023-03-26T23:59:41.418Z,96929.00
